Time;durP1;ratioP1;P1;durP2;ratioP2;P2;SDS_P1;SDS_P2;PMS_P1;PMS_P2;Temp;Humidity;BMP_temperature;BMP_pressure;BME280_temperature;BME280_humidity;BME280_pressure;Samples;Min_cycle;Max_cycle;Signal;HPM_P1;HPM_P2
2022/09/04 00:01:24;;;;;;;6.88;1.77;;;15.90;68.40;;;;;;5019151;28;20553;-75
2022/09/04 00:03:56;;;;;;;6.88;2.00;;;15.80;69.00;;;;;;5050726;28;20048;-75
2022/09/04 00:06:32;;;;;;;7.05;1.88;;;15.80;69.10;;;;;;5034309;28;20048;-75
2022/09/04 00:09:17;;;;;;;4.93;1.90;;;15.70;69.70;;;;;;5023552;28;20049;-75
2022/09/04 00:12:03;;;;;;;4.72;1.92;;;15.70;69.80;;;;;;5026086;28;20045;-75
2022/09/04 00:14:40;;;;;;;4.90;1.95;;;15.60;70.30;;;;;;5014693;28;20111;-75
2022/09/04 00:17:17;;;;;;;6.28;1.90;;;15.60;70.50;;;;;;5014215;28;20531;-75
2022/09/04 00:19:58;;;;;;;4.75;1.98;;;15.60;70.60;;;;;;5014536;28;20037;-76
2022/09/04 00:22:48;;;;;;;6.05;1.90;;;15.60;70.90;;;;;;5017519;28;20042;-75
2022/09/04 00:25:24;;;;;;;6.82;2.13;;;15.60;71.10;;;;;;5028321;28;20071;-75
2022/09/04 00:28:00;;;;;;;4.57;1.80;;;15.60;71.30;;;;;;5018931;28;20045;-75
2022/09/04 00:30:26;;;;;;;5.82;2.00;;;15.60;71.50;;;;;;5017824;28;20041;-75
2022/09/04 00:33:06;;;;;;;5.72;1.83;;;15.60;71.20;;;;;;5017541;28;20045;-75
2022/09/04 00:35:37;;;;;;;5.65;2.15;;;15.60;71.40;;;;;;5022251;28;20056;-75
2022/09/04 00:38:30;;;;;;;6.35;2.05;;;15.60;71.70;;;;;;5017630;28;20064;-75
2022/09/04 00:41:03;;;;;;;6.35;2.30;;;15.60;71.60;;;;;;5027601;28;20503;-75
2022/09/04 00:43:28;;;;;;;8.38;2.47;;;15.50;72.20;;;;;;5033602;28;20030;-76
2022/09/04 00:46:15;;;;;;;7.47;2.20;;;15.40;73.00;;;;;;5017612;28;20163;-75
2022/09/04 00:48:47;;;;;;;8.02;2.10;;;15.40;73.40;;;;;;4996307;28;20503;-75
2022/09/04 00:51:46;;;;;;;8.32;2.20;;;15.30;74.00;;;;;;5010352;28;20042;-75
2022/09/04 00:54:40;;;;;;;5.93;2.08;;;15.20;74.80;;;;;;5017106;28;20049;-75
2022/09/04 00:57:36;;;;;;;5.82;2.17;;;15.20;75.40;;;;;;5017339;28;20056;-75
2022/09/04 01:00:08;;;;;;;7.15;2.17;;;15.20;76.10;;;;;;5017532;28;20504;-75
2022/09/04 01:02:39;;;;;;;7.72;2.25;;;15.20;76.80;;;;;;5017686;28;20518;-75
2022/09/04 01:05:26;;;;;;;5.45;2.10;;;15.10;76.80;;;;;;5017544;28;20507;-75
2022/09/04 01:08:15;;;;;;;5.65;2.20;;;15.10;76.80;;;;;;5027911;28;20041;-75
2022/09/04 01:10:59;;;;;;;5.65;2.30;;;15.10;78.10;;;;;;5022908;28;20471;-75
2022/09/04 01:13:38;;;;;;;6.15;2.33;;;15.00;77.50;;;;;;5036895;28;20056;-75
2022/09/04 01:16:35;;;;;;;6.22;2.20;;;15.00;78.80;;;;;;5004707;28;20041;-76
2022/09/04 01:19:27;;;;;;;6.63;2.10;;;15.00;78.50;;;;;;5012486;28;20044;-75
2022/09/04 01:22:14;;;;;;;6.28;2.08;;;15.00;79.10;;;;;;5035773;28;20041;-75
2022/09/04 01:25:10;;;;;;;5.38;2.17;;;15.00;79.30;;;;;;5016793;28;20446;-75
2022/09/04 01:27:54;;;;;;;5.93;2.28;;;14.90;80.00;;;;;;5036148;28;20037;-75
2022/09/04 01:30:21;;;;;;;6.10;2.38;;;14.90;79.60;;;;;;5013210;28;20068;-75
2022/09/04 01:33:05;;;;;;;4.22;1.95;;;14.90;79.60;;;;;;5011921;28;20051;-75
2022/09/04 01:36:00;;;;;;;5.15;2.13;;;14.90;79.40;;;;;;5016825;28;20052;-75
2022/09/04 01:38:46;;;;;;;5.50;2.33;;;14.90;79.10;;;;;;5034523;28;20047;-75
2022/09/04 01:41:32;;;;;;;6.47;2.10;;;15.00;79.40;;;;;;5034442;28;20052;-75
2022/09/04 01:43:59;;;;;;;6.78;2.20;;;14.90;79.50;;;;;;5019487;28;20571;-75
2022/09/04 01:46:36;;;;;;;6.10;2.03;;;14.90;79.30;;;;;;5034342;28;20036;-75
2022/09/04 01:49:39;;;;;;;4.97;2.10;;;14.90;79.20;;;;;;5017983;28;20090;-75
2022/09/04 01:52:11;;;;;;;;;;;15.00;79.00;;;;;;5035896;28;20080;-75
2022/09/04 01:54:47;;;;;;;4.80;2.00;;;15.00;78.50;;;;;;5020871;28;19917;-75
2022/09/04 01:57:40;;;;;;;5.70;2.17;;;15.00;78.60;;;;;;5027587;28;20112;-75
2022/09/04 02:00:09;;;;;;;;;;;15.00;79.60;;;;;;5016218;28;20560;-75
2022/09/04 02:02:46;;;;;;;5.55;2.05;;;14.90;82.00;;;;;;5016086;28;19926;-75
2022/09/04 02:05:20;;;;;;;4.32;2.00;;;14.80;80.50;;;;;;5015669;28;20041;-75
2022/09/04 02:08:13;;;;;;;6.18;1.98;;;14.80;80.20;;;;;;5015692;28;20118;-75
2022/09/04 02:11:01;;;;;;;5.70;2.00;;;14.80;80.00;;;;;;5013309;28;20050;-75
2022/09/04 02:13:39;;;;;;;5.85;2.40;;;14.80;79.80;;;;;;5031304;28;20060;-75
2022/09/04 02:16:29;;;;;;;7.53;2.53;;;14.80;81.30;;;;;;5015803;28;20045;-75
2022/09/04 02:19:20;;;;;;;6.18;2.30;;;14.70;83.40;;;;;;5015361;28;20501;-75
2022/09/04 02:22:02;;;;;;;5.25;2.40;;;14.60;84.10;;;;;;5015245;28;20038;-75
2022/09/04 02:24:40;;;;;;;;;;;14.50;84.90;;;;;;5010101;28;20088;-75
2022/09/04 02:27:52;;;;;;;6.18;2.08;;;14.50;85.40;;;;;;5011753;28;20393;-75
2022/09/04 02:30:19;;;;;;;6.80;2.40;;;14.40;87.80;;;;;;5001544;28;20573;-75
2022/09/04 02:33:04;;;;;;;6.70;2.22;;;14.30;86.20;;;;;;4998876;28;20072;-75
2022/09/04 02:35:38;;;;;;;6.32;2.10;;;14.30;86.20;;;;;;5014569;28;20511;-75
2022/09/04 02:38:09;;;;;;;6.95;2.60;;;14.30;86.20;;;;;;5015061;28;20539;-75
2022/09/04 02:40:51;;;;;;;5.32;2.40;;;14.30;87.20;;;;;;5010274;28;20498;-75
2022/09/04 02:43:49;;;;;;;6.88;2.47;;;14.30;87.60;;;;;;5014456;28;20098;-75
2022/09/04 02:46:33;;;;;;;5.35;2.20;;;14.30;88.40;;;;;;4983268;28;20041;-75
2022/09/04 02:49:22;;;;;;;6.93;2.65;;;14.20;88.10;;;;;;5020270;28;20029;-75
2022/09/04 02:52:14;;;;;;;6.20;2.40;;;14.20;88.60;;;;;;5020744;28;20047;-75
2022/09/04 02:55:02;;;;;;;;;;;14.20;90.40;;;;;;5006077;28;20505;-75
2022/09/04 02:57:53;;;;;;;6.47;2.35;;;14.10;91.00;;;;;;5023588;28;19940;-75
2022/09/04 03:00:26;;;;;;;7.43;2.78;;;14.10;90.30;;;;;;5015057;28;20044;-75
2022/09/04 03:02:57;;;;;;;6.68;2.75;;;14.10;90.30;;;;;;5014751;28;20117;-75
2022/09/04 03:05:45;;;;;;;6.20;2.90;;;14.20;91.00;;;;;;5034118;28;20129;-75
2022/09/04 03:08:17;;;;;;;7.63;2.92;;;14.10;91.10;;;;;;5034016;28;20047;-75
2022/09/04 03:10:45;;;;;;;7.07;2.78;;;14.10;91.40;;;;;;5019277;28;20519;-75
2022/09/04 03:13:40;;;;;;;6.18;2.78;;;14.10;91.20;;;;;;5028265;28;20040;-75
2022/09/04 03:16:11;;;;;;;6.60;2.85;;;14.10;91.00;;;;;;5034910;28;20041;-75
2022/09/04 03:19:04;;;;;;;5.85;2.72;;;14.00;91.70;;;;;;5031728;28;20072;-75
2022/09/04 03:21:59;;;;;;;6.63;2.97;;;14.00;91.80;;;;;;5027092;28;20037;-75
2022/09/04 03:25:00;;;;;;;7.45;3.30;;;13.90;92.30;;;;;;5034438;28;20487;-75
2022/09/04 03:27:29;;;;;;;7.60;2.90;;;13.80;93.10;;;;;;5012960;28;20037;-75
2022/09/04 03:30:06;;;;;;;6.90;2.90;;;13.70;93.00;;;;;;5026024;28;20190;-75
2022/09/04 03:33:01;;;;;;;6.25;2.90;;;13.70;93.00;;;;;;5034360;28;20072;-75
2022/09/04 03:35:41;;;;;;;6.38;3.00;;;13.70;92.70;;;;;;5017000;28;20480;-75
2022/09/04 03:38:22;;;;;;;7.05;2.90;;;13.70;93.00;;;;;;5006859;28;20480;-75
2022/09/04 03:41:03;;;;;;;5.45;2.85;;;13.70;93.00;;;;;;5017405;28;20051;-75
2022/09/04 03:43:40;;;;;;;6.43;3.10;;;13.70;94.10;;;;;;5008361;28;20045;-75
2022/09/04 03:46:09;;;;;;;6.50;2.80;;;13.70;93.80;;;;;;5018400;28;20047;-75
2022/09/04 03:48:43;;;;;;;7.35;3.20;;;13.60;94.60;;;;;;5014224;28;20069;-75
2022/09/04 03:51:37;;;;;;;8.52;2.83;;;13.70;95.10;;;;;;5018559;28;20504;-75
2022/09/04 03:54:22;;;;;;;6.22;3.13;;;13.60;94.90;;;;;;5013241;28;20041;-75
2022/09/04 03:57:18;;;;;;;5.65;2.70;;;13.60;95.70;;;;;;5031614;28;20041;-75
2022/09/04 03:59:55;;;;;;;6.03;2.95;;;13.60;95.20;;;;;;5016656;28;20100;-75
2022/09/04 04:02:30;;;;;;;7.15;2.95;;;13.60;95.70;;;;;;5030010;28;20558;-75
2022/09/04 04:05:14;;;;;;;7.68;3.00;;;13.60;95.40;;;;;;5022007;28;20524;-75
2022/09/04 04:07:52;;;;;;;5.40;2.90;;;13.60;95.70;;;;;;5017820;28;20040;-75
2022/09/04 04:10:18;;;;;;;7.80;3.08;;;13.50;95.60;;;;;;5020869;28;20558;-75
2022/09/04 04:12:59;;;;;;;6.25;2.92;;;13.50;95.80;;;;;;5037769;28;20040;-75
2022/09/04 04:15:34;;;;;;;5.30;3.00;;;13.50;96.50;;;;;;5037807;28;20041;-75
2022/09/04 04:18:19;;;;;;;6.20;3.10;;;13.30;96.70;;;;;;5021336;28;20287;-75
2022/09/04 04:20:51;;;;;;;6.90;2.90;;;13.30;96.90;;;;;;5037517;28;20560;-75
2022/09/04 04:23:57;;;;;;;6.95;3.10;;;13.30;96.70;;;;;;5037257;28;20045;-75
2022/09/04 04:26:44;;;;;;;6.68;3.10;;;13.30;96.90;;;;;;4980088;28;20095;-75
2022/09/04 04:29:27;;;;;;;7.10;3.30;;;13.30;96.60;;;;;;5037584;28;20534;-75
2022/09/04 04:32:10;;;;;;;7.15;3.40;;;13.30;96.50;;;;;;5037823;28;20484;-75
2022/09/04 04:34:48;;;;;;;7.03;3.28;;;13.30;96.90;;;;;;5032976;28;20484;-75
2022/09/04 04:37:29;;;;;;;5.82;3.17;;;13.30;97.20;;;;;;5040734;28;20044;-75
2022/09/04 04:40:25;;;;;;;5.78;2.70;;;13.30;96.80;;;;;;5036948;28;20045;-75
2022/09/04 04:43:00;;;;;;;7.88;2.90;;;13.40;96.20;;;;;;5036844;28;20098;-75
2022/09/04 04:45:49;;;;;;;7.10;3.00;;;13.30;96.30;;;;;;5037271;28;20037;-75
2022/09/04 04:48:28;;;;;;;8.52;3.13;;;13.30;96.20;;;;;;5037577;28;20037;-75
2022/09/04 04:51:23;;;;;;;6.30;2.70;;;13.30;96.30;;;;;;5032282;28;20041;-75
2022/09/04 04:54:16;;;;;;;5.72;2.60;;;13.40;96.00;;;;;;5036034;28;20040;-75
2022/09/04 04:57:17;;;;;;;7.72;3.20;;;13.40;95.80;;;;;;5036805;28;20045;-75
2022/09/04 05:00:06;;;;;;;6.40;2.80;;;13.40;96.00;;;;;;5037214;28;20503;-75
2022/09/04 05:02:38;;;;;;;7.70;3.30;;;13.40;96.20;;;;;;5029665;28;20310;-75
2022/09/04 05:05:23;;;;;;;6.88;3.10;;;13.40;96.70;;;;;;5039971;28;20045;-75
2022/09/04 05:08:12;;;;;;;6.65;3.00;;;13.40;96.40;;;;;;5019801;28;20616;-75
2022/09/04 05:10:47;;;;;;;7.85;3.28;;;13.40;96.50;;;;;;5022950;28;20041;-75
2022/09/04 05:13:25;;;;;;;7.72;2.97;;;13.40;96.90;;;;;;5036963;28;20480;-75
2022/09/04 05:16:09;;;;;;;6.45;2.58;;;13.40;96.80;;;;;;5004781;28;20092;-75
2022/09/04 05:18:51;;;;;;;5.88;2.80;;;13.40;96.30;;;;;;5016072;28;20106;-75
2022/09/04 05:21:20;;;;;;;6.50;3.10;;;13.40;96.10;;;;;;5026560;28;20064;-75
2022/09/04 05:24:11;;;;;;;6.63;3.10;;;13.50;96.40;;;;;;5015854;28;20433;-75
2022/09/04 05:26:46;;;;;;;8.27;3.17;;;13.50;96.50;;;;;;5028605;28;20480;-75
2022/09/04 05:29:17;;;;;;;6.10;3.08;;;13.50;96.30;;;;;;5011563;28;20041;-75
2022/09/04 05:32:15;;;;;;;7.45;2.70;;;13.50;96.10;;;;;;5022752;28;20042;-76
2022/09/04 05:35:16;;;;;;;5.55;3.03;;;13.60;96.40;;;;;;4989956;28;20045;-76
2022/09/04 05:38:25;;;;;;;8.25;3.20;;;13.60;96.30;;;;;;4997196;28;20053;-75
2022/09/04 05:41:02;;;;;;;6.38;3.30;;;13.70;96.40;;;;;;5015200;28;20045;-75
2022/09/04 05:43:31;;;;;;;6.75;3.10;;;13.70;96.80;;;;;;5016378;28;20037;-75
2022/09/04 05:46:41;;;;;;;8.52;2.90;;;13.70;97.20;;;;;;5012911;28;20042;-75
2022/09/04 05:49:28;;;;;;;6.72;3.38;;;13.80;97.10;;;;;;4940293;29;20630;-75
2022/09/04 05:52:24;;;;;;;9.57;3.50;;;13.80;97.50;;;;;;5030235;28;20060;-77
2022/09/04 05:55:18;;;;;;;7.55;3.58;;;13.70;98.00;;;;;;5016041;28;20041;-77
2022/09/04 05:58:17;;;;;;;8.07;3.33;;;13.80;97.80;;;;;;5015112;28;20124;-77
2022/09/04 06:01:14;;;;;;;8.40;3.33;;;13.90;97.70;;;;;;5014996;28;20488;-78
2022/09/04 06:03:46;;;;;;;7.50;3.50;;;14.00;98.10;;;;;;5014816;28;20045;-76
2022/09/04 06:06:30;;;;;;;5.63;3.15;;;14.10;98.60;;;;;;5015344;28;20408;-77
2022/09/04 06:09:33;;;;;;;6.53;3.20;;;14.10;98.00;;;;;;5020579;28;20533;-76
2022/09/04 06:12:21;;;;;;;6.15;3.17;;;14.50;97.80;;;;;;5034828;28;21132;-77
2022/09/04 06:14:57;;;;;;;8.23;3.35;;;14.90;97.90;;;;;;5051328;28;20036;-77
2022/09/04 06:17:50;;;;;;;8.00;3.30;;;15.30;97.00;;;;;;5034145;28;20491;-79
2022/09/04 06:20:22;;;;;;;9.52;3.60;;;15.70;95.10;;;;;;5035009;28;20442;-77
2022/09/04 06:23:25;;;;;;;6.60;3.30;;;15.90;94.50;;;;;;5018647;28;20041;-77
2022/09/04 06:26:02;;;;;;;7.32;3.22;;;16.50;94.50;;;;;;5034841;28;20033;-76
2022/09/04 06:28:53;;;;;;;6.68;3.25;;;16.70;93.20;;;;;;5035026;28;20045;-77
2022/09/04 06:31:18;;;;;;;6.65;3.00;;;17.20;92.30;;;;;;5008060;28;20052;-74
2022/09/04 06:34:10;;;;;;;5.97;2.80;;;17.10;90.60;;;;;;5034581;28;20412;-74
2022/09/04 06:36:56;;;;;;;8.03;3.53;;;17.10;91.10;;;;;;5035327;28;20044;-75
2022/09/04 06:40:01;;;;;;;7.38;3.10;;;16.90;90.80;;;;;;5034575;28;20045;-77
2022/09/04 06:42:56;;;;;;;9.60;3.13;;;17.10;90.60;;;;;;5020917;28;20049;-75
2022/09/04 06:45:47;;;;;;;7.88;3.03;;;17.60;91.10;;;;;;4991678;28;20410;-75
2022/09/04 06:48:38;;;;;;;6.63;3.33;;;18.20;89.20;;;;;;5033862;28;20083;-75
2022/09/04 06:51:20;;;;;;;7.90;3.17;;;18.50;86.60;;;;;;5050955;28;20124;-76
2022/09/04 06:53:55;;;;;;;7.43;3.17;;;18.70;84.90;;;;;;5033234;28;20399;-76
2022/09/04 06:56:38;;;;;;;6.70;3.20;;;18.50;84.40;;;;;;5032441;28;20048;-76
2022/09/04 06:59:06;;;;;;;5.90;3.17;;;18.60;84.50;;;;;;5033197;28;20033;-75
2022/09/04 07:02:00;;;;;;;6.68;3.17;;;19.00;84.40;;;;;;5034507;28;20044;-74
2022/09/04 07:05:03;;;;;;;6.78;3.20;;;19.40;84.20;;;;;;5034503;28;20049;-75
2022/09/04 07:07:37;;;;;;;7.22;3.15;;;19.50;81.60;;;;;;5017861;28;20040;-75
2022/09/04 07:10:15;;;;;;;7.35;3.13;;;20.10;83.10;;;;;;5010789;28;20115;-75
2022/09/04 07:12:52;;;;;;;6.43;2.75;;;20.20;78.40;;;;;;5024553;28;20048;-75
2022/09/04 07:15:36;;;;;;;6.50;3.00;;;20.50;78.00;;;;;;5013251;28;20029;-75
2022/09/04 07:18:29;;;;;;;7.68;3.08;;;20.50;75.00;;;;;;5012607;28;20042;-75
2022/09/04 07:21:18;;;;;;;5.93;2.70;;;20.60;72.80;;;;;;5011088;28;20042;-75
2022/09/04 07:23:55;;;;;;;6.75;2.70;;;21.20;74.20;;;;;;4993458;28;20048;-75
2022/09/04 07:26:44;;;;;;;6.40;2.92;;;22.00;71.90;;;;;;5012769;28;20120;-75
2022/09/04 07:29:28;;;;;;;8.27;2.88;;;21.30;69.00;;;;;;5013509;28;20447;-75
2022/09/04 07:32:09;;;;;;;5.60;2.70;;;21.10;70.70;;;;;;5018461;28;20433;-75
2022/09/04 07:34:58;;;;;;;6.57;2.80;;;21.30;71.80;;;;;;5019038;28;20506;-75
2022/09/04 07:37:49;;;;;;;6.60;2.50;;;21.80;70.50;;;;;;4991646;28;20287;-75
2022/09/04 07:40:16;;;;;;;6.90;2.80;;;22.40;68.70;;;;;;5018246;28;20081;-75
2022/09/04 07:42:56;;;;;;;7.32;2.65;;;22.30;65.10;;;;;;5018192;28;20037;-76
2022/09/04 07:45:34;;;;;;;6.20;2.58;;;22.30;65.70;;;;;;5019964;28;20095;-75
2022/09/04 07:48:22;;;;;;;6.15;2.50;;;22.20;64.80;;;;;;5019709;28;20038;-75
2022/09/04 07:51:08;;;;;;;5.22;2.50;;;22.30;65.10;;;;;;5019855;28;20038;-76
2022/09/04 07:53:59;;;;;;;4.88;2.30;;;22.20;65.10;;;;;;5018894;28;20045;-76
2022/09/04 07:56:37;;;;;;;5.72;2.63;;;21.80;64.90;;;;;;5003534;28;20046;-76
2022/09/04 07:59:44;;;;;;;6.57;2.47;;;21.90;64.90;;;;;;5003053;28;20049;-76
2022/09/04 08:02:33;;;;;;;7.30;2.40;;;22.00;65.70;;;;;;5003243;28;20080;-77
2022/09/04 08:05:29;;;;;;;6.35;2.38;;;22.20;64.80;;;;;;5018872;28;20044;-75
2022/09/04 08:08:13;;;;;;;6.65;2.60;;;22.00;65.00;;;;;;5003366;28;20088;-75
2022/09/04 08:10:58;;;;;;;5.93;2.38;;;22.10;65.60;;;;;;5039007;28;20067;-76
2022/09/04 08:13:32;;;;;;;4.70;2.30;;;22.10;66.00;;;;;;5024713;28;20042;-77
2022/09/04 08:16:12;;;;;;;6.43;2.35;;;22.50;65.50;;;;;;5038941;28;20045;-76
2022/09/04 08:19:11;;;;;;;6.20;2.40;;;22.50;64.20;;;;;;5036462;28;20049;-75
2022/09/04 08:21:42;;;;;;;6.22;2.50;;;22.50;64.00;;;;;;5015487;28;20488;-75
2022/09/04 08:24:26;;;;;;;5.47;2.53;;;22.40;64.10;;;;;;5037160;28;20087;-75
2022/09/04 08:27:17;;;;;;;7.35;2.50;;;22.40;64.60;;;;;;5024261;28;20496;-76
2022/09/04 08:30:06;;;;;;;5.13;2.33;;;22.50;64.30;;;;;;5018983;28;20045;-75
2022/09/04 08:32:53;;;;;;;16.02;2.97;;;22.70;63.70;;;;;;5019162;28;20108;-75
2022/09/04 08:35:46;;;;;;;6.00;2.50;;;22.90;63.40;;;;;;5002183;28;20037;-76
2022/09/04 08:38:39;;;;;;;5.18;2.20;;;23.10;62.70;;;;;;5007322;28;20037;-76
2022/09/04 08:41:26;;;;;;;6.47;2.28;;;23.20;62.80;;;;;;5036092;28;20045;-75
2022/09/04 08:44:03;;;;;;;6.43;2.30;;;23.20;62.70;;;;;;5011970;28;20530;-76
2022/09/04 08:47:09;;;;;;;6.40;2.40;;;23.40;61.10;;;;;;5037621;28;20037;-76
2022/09/04 08:50:05;;;;;;;6.43;2.40;;;23.00;62.40;;;;;;5000828;28;20099;-76
2022/09/04 08:53:00;;;;;;;5.20;2.10;;;23.20;63.50;;;;;;5036699;28;20044;-76
2022/09/04 08:55:34;;;;;;;5.43;2.47;;;23.60;61.80;;;;;;5036243;28;20091;-75
2022/09/04 08:58:37;;;;;;;5.00;2.10;;;23.20;60.30;;;;;;5037107;28;20531;-76
2022/09/04 09:01:15;;;;;;;5.32;2.22;;;23.40;61.70;;;;;;5037273;28;20045;-76
2022/09/04 09:04:18;;;;;;;5.90;2.63;;;23.60;61.70;;;;;;5031100;28;20042;-76
2022/09/04 09:07:13;;;;;;;5.20;2.30;;;23.60;61.00;;;;;;5014949;28;20038;-76
2022/09/04 09:10:03;;;;;;;4.85;2.38;;;23.60;60.10;;;;;;5023048;28;20045;-76
2022/09/04 09:13:05;;;;;;;5.50;2.60;;;23.90;61.10;;;;;;5036815;28;20076;-76
2022/09/04 09:15:52;;;;;;;5.60;2.47;;;24.20;59.10;;;;;;5016994;28;20499;-76
2022/09/04 09:18:37;;;;;;;5.93;2.10;;;24.40;58.60;;;;;;5036340;28;20040;-75
2022/09/04 09:21:10;;;;;;;8.10;2.22;;;24.50;59.00;;;;;;5036706;28;20048;-75
2022/09/04 09:24:04;;;;;;;4.75;2.03;;;24.80;58.70;;;;;;5030875;28;20045;-75
2022/09/04 09:26:37;;;;;;;5.28;2.10;;;25.00;58.20;;;;;;5036714;28;20494;-76
2022/09/04 09:29:18;;;;;;;6.05;2.03;;;25.10;56.50;;;;;;5036153;28;20037;-76
2022/09/04 09:32:15;;;;;;;5.53;2.15;;;25.10;56.60;;;;;;5020315;28;20036;-76
2022/09/04 09:35:00;;;;;;;5.15;2.05;;;25.30;55.90;;;;;;5036258;28;20041;-76
2022/09/04 09:37:37;;;;;;;5.75;2.00;;;25.40;55.70;;;;;;5035694;28;20052;-76
2022/09/04 09:40:21;;;;;;;5.13;2.00;;;25.50;55.80;;;;;;5019336;28;20045;-76
2022/09/04 09:43:08;;;;;;;4.90;2.17;;;25.70;55.80;;;;;;5036133;28;20045;-76
2022/09/04 09:46:12;;;;;;;6.03;2.28;;;26.00;54.70;;;;;;5019734;28;20116;-76
2022/09/04 09:49:03;;;;;;;5.90;2.10;;;26.20;54.60;;;;;;5035410;28;20041;-76
2022/09/04 09:51:41;;;;;;;;;;;26.30;53.90;;;;;;4988041;28;20041;-76
2022/09/04 09:54:26;;;;;;;6.07;2.00;;;26.30;52.20;;;;;;5032279;28;19916;-76
2022/09/04 09:57:19;;;;;;;7.13;2.20;;;26.20;52.60;;;;;;5035535;28;20087;-77
2022/09/04 10:00:06;;;;;;;5.07;2.00;;;26.10;52.20;;;;;;5035611;28;20037;-76
2022/09/04 10:02:53;;;;;;;5.55;1.98;;;26.30;52.30;;;;;;5026124;28;20476;-77
2022/09/04 10:05:55;;;;;;;5.03;2.00;;;26.40;51.50;;;;;;5035370;28;20082;-76
2022/09/04 10:08:26;;;;;;;;;;;26.00;51.90;;;;;;5010019;28;20606;-76
2022/09/04 10:11:06;;;;;;;4.75;1.98;;;25.90;52.10;;;;;;5035206;28;19928;-76
2022/09/04 10:14:00;;;;;;;4.82;1.83;;;26.30;53.50;;;;;;5035551;28;20396;-77
2022/09/04 10:16:51;;;;;;;5.53;2.00;;;26.50;51.40;;;;;;5028135;28;20048;-77
2022/09/04 10:19:52;;;;;;;8.13;1.90;;;26.80;51.00;;;;;;5029878;28;20487;-77
2022/09/04 10:22:55;;;;;;;5.80;1.90;;;26.90;50.80;;;;;;5031201;28;20064;-77
2022/09/04 10:25:53;;;;;;;6.03;1.80;;;26.70;50.50;;;;;;5033594;28;20053;-77
2022/09/04 10:28:34;;;;;;;5.55;1.90;;;26.90;49.70;;;;;;5034357;28;20051;-77
2022/09/04 10:31:12;;;;;;;5.97;1.80;;;27.00;49.90;;;;;;5033415;28;20086;-77
2022/09/04 10:33:43;;;;;;;46.13;4.68;;;27.00;49.60;;;;;;5032692;28;20086;-77
2022/09/04 10:36:32;;;;;;;10.25;1.90;;;27.10;49.50;;;;;;5013881;28;21467;-77
2022/09/04 10:42:01;;;;;;;5.32;1.90;;;27.00;49.60;;;;;;5033585;28;20107;-77
2022/09/04 10:44:38;;;;;;;5.80;1.90;;;27.00;49.90;;;;;;5033535;28;20041;-77
2022/09/04 10:47:07;;;;;;;6.18;2.00;;;27.10;48.90;;;;;;5048507;28;20071;-77
2022/09/04 10:49:58;;;;;;;6.32;2.00;;;27.10;49.20;;;;;;5033637;28;20120;-77
2022/09/04 10:53:04;;;;;;;11.35;2.05;;;27.20;49.20;;;;;;5032918;28;20041;-77
2022/09/04 10:55:42;;;;;;;6.00;1.90;;;26.90;49.10;;;;;;5031964;28;20087;-77
2022/09/04 10:58:27;;;;;;;5.88;1.90;;;26.70;48.40;;;;;;5026690;28;20049;-77
2022/09/04 11:01:31;;;;;;;5.47;1.80;;;26.90;49.20;;;;;;5032691;28;20484;-77
2022/09/04 11:04:26;;;;;;;4.97;1.90;;;26.90;49.20;;;;;;5030458;28;20041;-76
2022/09/04 11:07:10;;;;;;;4.22;1.80;;;26.70;49.60;;;;;;5034182;28;20029;-77
2022/09/04 11:09:39;;;;;;;4.03;1.73;;;27.10;49.60;;;;;;5032903;28;20052;-77
2022/09/04 11:12:27;;;;;;;4.65;1.75;;;27.20;49.60;;;;;;4982537;28;20580;-77
2022/09/04 11:15:20;;;;;;;5.47;1.98;;;27.30;49.30;;;;;;5020134;28;20518;-77
2022/09/04 11:17:47;;;;;;;6.35;1.70;;;27.10;49.00;;;;;;5050375;28;20041;-78
2022/09/04 11:20:40;;;;;;;5.03;2.00;;;27.00;50.10;;;;;;5016670;28;20045;-77
2022/09/04 11:23:30;;;;;;;4.72;1.90;;;27.10;50.70;;;;;;5046100;28;20492;-77
2022/09/04 11:26:44;;;;;;;4.70;1.80;;;27.20;50.20;;;;;;5047312;28;20496;-78
2022/09/04 11:29:31;;;;;;;5.68;1.80;;;27.30;50.70;;;;;;5029409;28;20046;-78
2022/09/04 11:32:00;;;;;;;5.82;1.83;;;27.60;50.20;;;;;;5047442;28;20037;-78
2022/09/04 11:35:05;;;;;;;6.65;1.90;;;27.60;49.20;;;;;;5039138;28;20492;-78
2022/09/04 11:37:55;;;;;;;4.38;1.70;;;27.80;49.80;;;;;;5044970;28;20041;-78
2022/09/04 11:40:33;;;;;;;4.25;1.80;;;27.80;50.00;;;;;;5045577;28;20049;-78
2022/09/04 11:43:58;;;;;;;5.13;1.70;;;28.00;49.10;;;;;;5038328;28;20050;-78
2022/09/04 11:46:46;;;;;;;5.35;1.90;;;28.00;49.80;;;;;;4957609;28;20042;-78
2022/09/04 11:49:47;;;;;;;4.90;1.90;;;28.10;49.60;;;;;;5028372;28;20046;-78
2022/09/04 11:52:25;;;;;;;4.63;1.80;;;28.30;49.40;;;;;;5013071;28;20045;-78
2022/09/04 11:54:50;;;;;;;6.18;1.90;;;28.30;49.00;;;;;;5013899;28;20053;-78
2022/09/04 11:57:51;;;;;;;5.43;1.88;;;28.40;49.00;;;;;;5047887;28;20508;-78
2022/09/04 12:00:18;;;;;;;5.28;1.60;;;28.00;48.50;;;;;;5014728;28;20095;-78
2022/09/04 12:03:08;;;;;;;4.22;2.00;;;27.90;48.30;;;;;;5047599;28;20096;-78
2022/09/04 12:05:57;;;;;;;4.97;1.90;;;27.90;48.70;;;;;;5034580;28;20041;-78
2022/09/04 12:08:50;;;;;;;5.45;1.80;;;27.70;48.40;;;;;;5044607;28;20064;-78
2022/09/04 12:11:34;;;;;;;3.80;1.85;;;27.90;49.50;;;;;;5014734;28;20504;-78
2022/09/04 12:14:14;;;;;;;4.18;1.70;;;28.00;48.70;;;;;;5000438;28;20049;-78
2022/09/04 12:17:09;;;;;;;4.43;1.77;;;27.90;48.80;;;;;;5032653;28;20578;-78
2022/09/04 12:19:49;;;;;;;4.97;1.70;;;28.00;48.90;;;;;;5051145;28;20053;-78
2022/09/04 12:22:40;;;;;;;6.10;1.77;;;28.00;48.70;;;;;;5050451;28;20045;-78
2022/09/04 12:25:27;;;;;;;4.23;1.80;;;28.00;48.90;;;;;;5050798;28;20052;-78
2022/09/04 12:28:11;;;;;;;5.35;1.90;;;28.00;48.90;;;;;;5034415;28;20120;-78
2022/09/04 12:31:06;;;;;;;5.03;1.80;;;28.20;48.80;;;;;;5017830;28;20041;-78
2022/09/04 12:33:41;;;;;;;5.75;2.00;;;28.30;48.40;;;;;;4999505;28;20144;-78
2022/09/04 12:36:22;;;;;;;4.95;1.90;;;28.50;47.90;;;;;;5018212;28;20554;-78
2022/09/04 12:39:52;;;;;;;4.93;1.80;;;28.30;47.30;;;;;;5050583;28;20675;-78
2022/09/04 12:42:27;;;;;;;4.90;1.88;;;28.30;48.20;;;;;;4959899;28;20121;-78
2022/09/04 12:45:05;;;;;;;6.22;2.00;;;28.30;47.90;;;;;;5011027;28;20498;-78
2022/09/04 12:48:12;;;;;;;5.22;1.95;;;28.00;48.70;;;;;;5046425;28;20033;-78
2022/09/04 12:50:43;;;;;;;5.18;1.77;;;27.90;48.50;;;;;;5050512;28;20038;-78
2022/09/04 12:53:27;;;;;;;5.23;1.90;;;27.90;48.60;;;;;;5017052;28;20219;-78
2022/09/04 12:56:27;;;;;;;3.75;1.70;;;28.10;48.10;;;;;;5017787;28;20846;-78
2022/09/04 12:59:34;;;;;;;5.47;1.80;;;28.20;48.70;;;;;;5005339;28;20126;-78
2022/09/04 13:02:37;;;;;;;4.60;1.77;;;28.30;47.50;;;;;;5050173;28;20041;-78
2022/09/04 13:05:32;;;;;;;3.78;1.70;;;28.00;47.80;;;;;;5016829;28;20037;-78
2022/09/04 13:08:35;;;;;;;3.63;1.60;;;27.90;48.70;;;;;;5016994;28;20095;-78
2022/09/04 13:11:12;;;;;;;4.25;1.63;;;28.20;47.80;;;;;;5050340;28;20049;-78
2022/09/04 13:13:47;;;;;;;7.22;1.85;;;28.10;48.10;;;;;;5049675;28;20033;-78
2022/09/04 13:16:19;;;;;;;4.35;1.70;;;28.00;48.10;;;;;;5050305;28;20069;-78
2022/09/04 13:19:07;;;;;;;5.25;1.70;;;28.20;47.50;;;;;;5050062;28;20507;-78
2022/09/04 13:21:54;;;;;;;3.90;1.83;;;28.20;48.20;;;;;;5017078;28;20507;-78
2022/09/04 13:24:35;;;;;;;4.30;1.80;;;28.30;47.50;;;;;;5046303;28;20049;-78
2022/09/04 13:27:28;;;;;;;4.77;1.80;;;28.30;47.30;;;;;;5049435;28;20042;-78
2022/09/04 13:30:20;;;;;;;4.97;2.00;;;28.10;47.60;;;;;;5049926;28;20124;-78
2022/09/04 13:33:10;;;;;;;4.97;1.80;;;28.30;47.80;;;;;;5036938;28;20480;-78
2022/09/04 13:36:04;;;;;;;4.60;1.90;;;27.80;47.70;;;;;;5016148;28;20042;-78
2022/09/04 13:39:00;;;;;;;5.85;1.90;;;27.40;48.50;;;;;;5049237;28;20037;-78
2022/09/04 13:41:56;;;;;;;4.75;1.63;;;27.50;49.30;;;;;;5049741;28;20546;-78
2022/09/04 13:44:27;;;;;;;3.70;1.73;;;27.70;48.40;;;;;;5049696;28;20045;-78
2022/09/04 13:46:53;;;;;;;4.57;1.75;;;27.60;48.10;;;;;;5049483;28;20040;-78
2022/09/04 13:49:27;;;;;;;4.00;1.70;;;27.60;48.60;;;;;;5049313;28;20041;-78
2022/09/04 13:52:06;;;;;;;4.85;1.67;;;27.80;48.20;;;;;;5015938;28;20052;-78
2022/09/04 13:55:36;;;;;;;4.57;1.80;;;27.70;47.80;;;;;;4999484;28;20045;-78
2022/09/04 13:58:15;;;;;;;6.13;2.00;;;27.70;48.20;;;;;;4947947;28;20055;-78
2022/09/04 14:00:55;;;;;;;3.50;1.58;;;27.70;48.50;;;;;;5005350;28;20037;-78
2022/09/04 14:03:43;;;;;;;4.50;1.67;;;27.70;48.50;;;;;;5049042;28;20049;-78
2022/09/04 14:06:13;;;;;;;5.10;1.90;;;27.80;48.70;;;;;;5049328;28;20044;-78
2022/09/04 14:08:41;;;;;;;5.25;1.80;;;27.90;47.70;;;;;;5047810;28;20404;-78
2022/09/04 14:11:22;;;;;;;4.38;1.42;;;27.70;48.20;;;;;;5049210;28;20135;-78
2022/09/04 14:14:02;;;;;;;4.15;1.90;;;27.70;48.30;;;;;;5015843;28;20045;-78
2022/09/04 14:16:35;;;;;;;4.65;1.60;;;27.80;48.30;;;;;;5016340;28;20500;-78
2022/09/04 14:19:25;;;;;;;5.82;1.83;;;27.90;48.40;;;;;;4999825;28;20037;-78
2022/09/04 14:22:24;;;;;;;5.15;1.77;;;27.90;48.70;;;;;;5048293;28;20038;-78
2022/09/04 14:25:06;;;;;;;4.70;1.80;;;27.80;48.50;;;;;;5033190;28;20121;-78